createdAt,value
2016-04-23T00:00:03.997Z,82.9
2016-04-23T00:00:13.982Z,83.3
2016-04-23T00:00:23.982Z,83.6
2016-04-23T00:00:33.951Z,83.9
2016-04-23T00:00:43.951Z,83.7
2016-04-23T00:00:53.951Z,83.8
2016-04-23T00:01:03.954Z,84.1
2016-04-23T00:01:13.969Z,84.2
2016-04-23T00:01:23.938Z,84.1
2016-04-23T00:01:33.938Z,84.2
2016-04-23T00:01:43.938Z,83.9
2016-04-23T00:01:53.922Z,84.4
2016-04-23T00:02:03.800Z,84.4
2016-04-23T00:02:13.910Z,85
2016-04-23T00:02:23.894Z,85.3
2016-04-23T00:02:33.910Z,85.4
2016-04-23T00:02:43.894Z,85.6
2016-04-23T00:02:53.910Z,85.7
2016-04-23T00:03:03.896Z,85.9
2016-04-23T00:03:13.880Z,85.8
2016-04-23T00:03:23.880Z,86.2
2016-04-23T00:03:33.880Z,85.9
2016-04-23T00:03:43.880Z,85.9
2016-04-23T00:03:53.865Z,85.9
2016-04-23T00:04:03.868Z,85.2
2016-04-23T00:04:13.852Z,84.7
2016-04-23T00:04:23.852Z,84.8
2016-04-23T00:04:33.852Z,85.1
2016-04-23T00:04:43.852Z,85.3
2016-04-23T00:04:53.837Z,85.9
2016-04-23T00:05:03.824Z,85.9
2016-04-23T00:05:13.824Z,85.9
2016-04-23T00:05:23.824Z,85.5
2016-04-23T00:05:33.808Z,85
2016-04-23T00:05:43.808Z,85.3
2016-04-23T00:05:53.824Z,84.9
2016-04-23T00:06:03.811Z,84.4
2016-04-23T00:06:13.796Z,84
2016-04-23T00:06:23.796Z,84.1
2016-04-23T00:06:33.780Z,84.1
2016-04-23T00:06:43.780Z,84.4
2016-04-23T00:06:53.780Z,85.1
2016-04-23T00:07:03.782Z,85.1
2016-04-23T00:07:13.766Z,85.1
2016-04-23T00:07:23.766Z,84.6
2016-04-23T00:07:33.751Z,84.5
2016-04-23T00:07:43.751Z,84.8
2016-04-23T00:07:53.751Z,84.5
2016-04-23T00:08:03.754Z,84.3
2016-04-23T00:08:13.738Z,84.4
2016-04-23T00:08:23.754Z,84.2
2016-04-23T00:08:33.723Z,84.7
2016-04-23T00:08:43.723Z,84.2
2016-04-23T00:08:53.723Z,84.2
2016-04-23T00:09:03.709Z,84.4
2016-04-23T00:09:13.725Z,84.1
2016-04-23T00:09:23.725Z,84.1
2016-04-23T00:09:33.693Z,84.1
2016-04-23T00:09:43.709Z,83.6
2016-04-23T00:09:53.678Z,83.9
2016-04-23T00:10:03.682Z,83.7
2016-04-23T00:10:13.682Z,84.1
2016-04-23T00:10:23.666Z,84.1
2016-04-23T00:10:33.682Z,84.1
2016-04-23T00:10:43.682Z,84.4
2016-04-23T00:10:53.666Z,84.6
2016-04-23T00:11:03.668Z,84.7
2016-04-23T00:11:13.652Z,84.4
2016-04-23T00:11:23.652Z,84.4
2016-04-23T00:11:33.637Z,84.4
2016-04-23T00:11:43.621Z,83.9
2016-04-23T00:11:53.637Z,84
2016-04-23T00:12:03.640Z,84.1
2016-04-23T00:12:13.624Z,84
2016-04-23T00:12:23.624Z,84.3
2016-04-23T00:12:33.609Z,83.5
2016-04-23T00:12:43.609Z,83.5
2016-04-23T00:12:53.593Z,83.5
2016-04-23T00:13:03.595Z,83.6
2016-04-23T00:13:13.595Z,83.3
2016-04-23T00:13:23.595Z,83.1
2016-04-23T00:13:33.579Z,83.2
2016-04-23T00:13:43.595Z,83.3
2016-04-23T00:13:53.579Z,83.5
2016-04-23T00:14:03.567Z,84
2016-04-23T00:14:13.567Z,84.1
2016-04-23T00:14:23.567Z,84.3
2016-04-23T00:14:33.551Z,84.8
2016-04-23T00:14:43.551Z,84.7
2016-04-23T00:14:53.535Z,84.8
2016-04-23T00:15:03.538Z,84.8
2016-04-23T00:15:13.554Z,84.8
2016-04-23T00:15:23.538Z,84.6
2016-04-23T00:15:33.523Z,84.2
2016-04-23T00:15:43.538Z,84.5
2016-04-23T00:15:53.507Z,84.3
2016-04-23T00:16:03.509Z,85
2016-04-23T00:16:13.494Z,85.1
2016-04-23T00:16:23.494Z,85.2
2016-04-23T00:16:33.494Z,85.4
2016-04-23T00:16:43.494Z,85.6
2016-04-23T00:16:53.509Z,85.7
2016-04-23T00:17:03.497Z,85.7
2016-04-23T00:17:13.465Z,85.8
2016-04-23T00:17:23.465Z,85.3
2016-04-23T00:17:33.465Z,85
2016-04-23T00:17:43.465Z,85
2016-04-23T00:17:53.450Z,85.2
2016-04-23T00:18:03.453Z,85.6
2016-04-23T00:18:13.437Z,86
2016-04-23T00:18:23.437Z,86.6
2016-04-23T00:18:33.437Z,86.5
2016-04-23T00:18:43.453Z,86.4
2016-04-23T00:18:53.421Z,86.7
2016-04-23T00:19:03.424Z,86.4
2016-04-23T00:19:13.409Z,86.3
2016-04-23T00:19:23.409Z,86.7
2016-04-23T00:19:33.409Z,86.5
2016-04-23T00:19:43.409Z,86.7
2016-04-23T00:19:53.409Z,86.1
2016-04-23T00:20:09.614Z,86.4
2016-04-23T00:20:19.614Z,86.2
2016-04-23T00:20:29.598Z,85.9
2016-04-23T00:20:39.598Z,85.9
2016-04-23T00:20:49.583Z,85.8
2016-04-23T00:20:59.586Z,85.9
2016-04-23T00:21:09.570Z,85.2
2016-04-23T00:21:19.570Z,85
2016-04-23T00:21:29.570Z,85.2
2016-04-23T00:21:39.570Z,85.2
2016-04-23T00:21:49.554Z,85.2
2016-04-23T00:21:59.573Z,84.7
2016-04-23T00:22:09.557Z,84.8
2016-04-23T00:22:19.557Z,84.3
2016-04-23T00:22:29.557Z,84.7
2016-04-23T00:22:39.542Z,84.4
2016-04-23T00:22:49.542Z,84.7
2016-04-23T00:22:59.528Z,84.7
2016-04-23T00:23:09.528Z,85.2
2016-04-23T00:23:19.528Z,85.1
2016-04-23T00:23:28.747Z,85.9
2016-04-23T00:23:39.513Z,85.1
2016-04-23T00:23:49.513Z,85.2
2016-04-23T00:23:59.500Z,85.2
2016-04-23T00:24:09.500Z,85.8
2016-04-23T00:24:19.484Z,85.9
2016-04-23T00:24:29.484Z,86.2
2016-04-23T00:24:39.484Z,86.1
2016-04-23T00:24:49.469Z,86.6
2016-04-23T00:24:59.456Z,86.4
2016-04-23T00:25:09.456Z,86.5
2016-04-23T00:25:19.472Z,86.5
2016-04-23T00:25:29.456Z,86.7
2016-04-23T00:25:39.456Z,85.9
2016-04-23T00:25:49.440Z,86.3
2016-04-23T00:25:59.442Z,86.1
2016-04-23T00:26:09.442Z,85.7
2016-04-23T00:26:19.427Z,85.8
2016-04-23T00:26:29.442Z,86.1
2016-04-23T00:26:39.427Z,85.1
2016-04-23T00:26:49.411Z,85.1
2016-04-23T00:26:59.414Z,85
2016-04-23T00:27:09.414Z,85.2
2016-04-23T00:27:19.399Z,84.9
2016-04-23T00:27:29.399Z,85
2016-04-23T00:27:39.399Z,84.6
2016-04-23T00:27:49.383Z,84.7
2016-04-23T00:27:59.386Z,84.2
2016-04-23T00:28:09.386Z,84.2
2016-04-23T00:28:19.386Z,84.1
2016-04-23T00:28:29.370Z,84.6
2016-04-23T00:28:39.370Z,85.2
2016-04-23T00:28:49.370Z,85.1
2016-04-23T00:28:59.357Z,85
2016-04-23T00:29:09.357Z,85.2
2016-04-23T00:29:19.325Z,84.6
2016-04-23T00:29:29.341Z,84.7
2016-04-23T00:29:39.325Z,84.7
2016-04-23T00:29:49.325Z,84.8
2016-04-23T00:29:59.344Z,84.9
2016-04-23T00:30:09.328Z,84.8
2016-04-23T00:30:19.313Z,84.7
2016-04-23T00:30:29.297Z,84.5
2016-04-23T00:30:39.297Z,85.2
2016-04-23T00:30:49.297Z,85.2
2016-04-23T00:30:59.285Z,85.2
2016-04-23T00:31:09.285Z,84.9
2016-04-23T00:31:19.300Z,85.3
2016-04-23T00:31:29.285Z,84.8
2016-04-23T00:31:39.285Z,84.9
2016-04-23T00:31:49.269Z,84.8
2016-04-23T00:31:59.288Z,84.7
2016-04-23T00:32:09.131Z,85.2
2016-04-23T00:32:19.256Z,84.8
2016-04-23T00:32:29.256Z,85.2
2016-04-23T00:32:39.241Z,85.1
2016-04-23T00:32:49.241Z,85
2016-04-23T00:32:59.243Z,85.5
2016-04-23T00:33:09.227Z,85.7
2016-04-23T00:33:19.227Z,85.8
2016-04-23T00:33:29.227Z,86.3
2016-04-23T00:33:39.227Z,86.1
2016-04-23T00:33:49.227Z,86
2016-04-23T00:33:59.196Z,86.2
2016-04-23T00:34:09.199Z,86.3
2016-04-23T00:34:19.183Z,85.5
2016-04-23T00:34:29.183Z,86.2
2016-04-23T00:34:39.183Z,86.5
2016-04-23T00:34:49.183Z,86.4
2016-04-23T00:34:59.183Z,86.5
2016-04-23T00:35:09.171Z,86.4
2016-04-23T00:35:19.171Z,87.1
2016-04-23T00:35:29.155Z,86.4
2016-04-23T00:35:39.155Z,87
2016-04-23T00:35:49.171Z,86.6
2016-04-23T00:35:59.139Z,87.3
2016-04-23T00:36:09.141Z,87.3
2016-04-23T00:36:19.126Z,87.9
2016-04-23T00:36:29.126Z,87.5
2016-04-23T00:36:39.126Z,87.5
2016-04-23T00:36:49.126Z,87.2
2016-04-23T00:36:59.110Z,87.5
2016-04-23T00:37:09.129Z,87.4
2016-04-23T00:37:19.113Z,86.8
2016-04-23T00:37:29.097Z,87
2016-04-23T00:37:39.082Z,87.4
2016-04-23T00:37:49.097Z,87.3
2016-04-23T00:37:59.097Z,86.8
2016-04-23T00:38:09.085Z,86.9
2016-04-23T00:38:19.085Z,87
2016-04-23T00:38:29.069Z,87.3
2016-04-23T00:38:39.054Z,87
2016-04-23T00:38:49.054Z,86.5
2016-04-23T00:38:59.054Z,86.3
2016-04-23T00:39:09.040Z,86.4
2016-04-23T00:39:19.056Z,85.9
2016-04-23T00:39:29.056Z,86.3
2016-04-23T00:39:39.040Z,86.2
2016-04-23T00:39:49.040Z,86.1
2016-04-23T00:39:59.024Z,86
2016-04-23T00:40:09.012Z,86.4
2016-04-23T00:40:19.027Z,85.9
2016-04-23T00:40:29.012Z,86.3
2016-04-23T00:40:39.012Z,85.6
2016-04-23T00:40:49.012Z,86.4
2016-04-23T00:40:58.996Z,86.1
2016-04-23T00:41:08.999Z,85.9
2016-04-23T00:41:18.983Z,86
2016-04-23T00:41:28.968Z,86.1
2016-04-23T00:41:38.983Z,86.2
2016-04-23T00:41:48.968Z,86.2
2016-04-23T00:41:58.983Z,86.2
2016-04-23T00:42:08.970Z,86.3
2016-04-23T00:42:18.970Z,86.2
2016-04-23T00:42:28.954Z,86
2016-04-23T00:42:38.954Z,86.7
2016-04-23T00:42:48.954Z,86.3
2016-04-23T00:42:58.939Z,86.6
2016-04-23T00:43:08.942Z,86.5
2016-04-23T00:43:18.926Z,86.4
2016-04-23T00:43:28.926Z,86.4
2016-04-23T00:43:38.926Z,87
2016-04-23T00:43:48.910Z,87.1
2016-04-23T00:43:58.910Z,87.1
2016-04-23T00:44:08.913Z,87.2
2016-04-23T00:44:18.913Z,87.1
2016-04-23T00:44:28.913Z,87.6
2016-04-23T00:44:38.882Z,87.3
2016-04-23T00:44:48.882Z,87.6
2016-04-23T00:44:58.866Z,87
2016-04-23T00:45:08.869Z,87
2016-04-23T00:45:18.869Z,87
2016-04-23T00:45:28.869Z,87
2016-04-23T00:45:38.854Z,86.5
2016-04-23T00:45:48.854Z,87
2016-04-23T00:45:58.854Z,87
2016-04-23T00:46:08.856Z,87
2016-04-23T00:46:18.840Z,87
2016-04-23T00:46:28.903Z,87.1
2016-04-23T00:46:38.825Z,87
2016-04-23T00:46:48.825Z,87
2016-04-23T00:46:58.840Z,87.6
2016-04-23T00:47:08.812Z,87.4
2016-04-23T00:47:18.843Z,87.2
2016-04-23T00:47:28.812Z,87
2016-04-23T00:47:38.796Z,87.3
2016-04-23T00:47:48.671Z,87.6
2016-04-23T00:47:58.781Z,87.1
2016-04-23T00:48:08.784Z,87.1
2016-04-23T00:48:18.768Z,87.1
2016-04-23T00:48:28.768Z,86.9
2016-04-23T00:48:38.768Z,87
2016-04-23T00:48:48.784Z,87
2016-04-23T00:48:58.752Z,87
2016-04-23T00:49:08.754Z,86.8
2016-04-23T00:49:18.739Z,87
2016-04-23T00:49:28.739Z,87.2
2016-04-23T00:49:38.739Z,87
2016-04-23T00:49:48.739Z,87
2016-04-23T00:49:58.723Z,88
2016-04-23T00:50:08.726Z,87.5
2016-04-23T00:50:18.726Z,87.3
2016-04-23T00:50:28.757Z,87.4
2016-04-23T00:50:38.726Z,87.9
2016-04-23T00:50:48.711Z,87.7
2016-04-23T00:50:58.695Z,87.4
2016-04-23T00:51:08.697Z,87.7
2016-04-23T00:51:18.681Z,87.4
2016-04-23T00:51:28.681Z,88
2016-04-23T00:51:38.681Z,87.2
2016-04-23T00:51:48.666Z,87.3
2016-04-23T00:51:58.681Z,88
2016-04-23T00:52:08.685Z,88.3
2016-04-23T00:52:18.670Z,87.4
2016-04-23T00:52:28.670Z,87.2
2016-04-23T00:52:38.638Z,87.2
2016-04-23T00:52:48.638Z,87.4
2016-04-23T00:52:58.638Z,87.2
2016-04-23T00:53:08.640Z,87.6
2016-04-23T00:53:18.640Z,87
2016-04-23T00:53:28.625Z,86.8
2016-04-23T00:53:38.609Z,87
2016-04-23T00:53:48.609Z,87
2016-04-23T00:53:58.609Z,87
2016-04-23T00:54:08.612Z,87.6
2016-04-23T00:54:18.612Z,87.1
2016-04-23T00:54:28.597Z,87.2
2016-04-23T00:54:38.581Z,87.7
2016-04-23T00:54:48.581Z,87.5
2016-04-23T00:54:58.581Z,87.3
2016-04-23T00:55:08.583Z,87.5
2016-04-23T00:55:18.567Z,87.2
2016-04-23T00:55:28.567Z,87.4
2016-04-23T00:55:38.567Z,86.5
2016-04-23T00:55:48.552Z,87.1
2016-04-23T00:55:58.552Z,87.2
2016-04-23T00:56:08.539Z,87
2016-04-23T00:56:18.539Z,87.6
2016-04-23T00:56:28.539Z,87.4
2016-04-23T00:56:38.539Z,88
2016-04-23T00:56:48.523Z,87.4
2016-04-23T00:56:58.523Z,87.7
2016-04-23T00:57:08.526Z,88
2016-04-23T00:57:18.526Z,88.1
2016-04-23T00:57:28.511Z,87.4
2016-04-23T00:57:38.511Z,88.1
2016-04-23T00:57:48.511Z,88.1
2016-04-23T00:57:58.480Z,88.1
2016-04-23T00:58:08.497Z,88.4
2016-04-23T00:58:18.482Z,88.6
2016-04-23T00:58:28.466Z,88.5
2016-04-23T00:58:38.482Z,88.9
2016-04-23T00:58:48.482Z,88.6
2016-04-23T00:58:58.466Z,88.7
2016-04-23T00:59:08.469Z,88.8
2016-04-23T00:59:18.453Z,88.9
2016-04-23T00:59:28.438Z,89.1
2016-04-23T00:59:38.438Z,88.7
2016-04-23T00:59:48.438Z,88.8
2016-04-23T00:59:58.438Z,88.8
2016-04-23T01:00:08.441Z,88.6
2016-04-23T01:00:18.441Z,88.5
2016-04-23T01:00:28.409Z,88.2
2016-04-23T01:00:38.425Z,88.3
2016-04-23T01:00:48.409Z,87.8
2016-04-23T01:00:58.409Z,88
2016-04-23T01:01:08.412Z,88.1
2016-04-23T01:01:18.397Z,87.2
2016-04-23T01:01:28.381Z,87.4
2016-04-23T01:01:38.381Z,87.3
2016-04-23T01:01:48.381Z,87.7
2016-04-23T01:01:58.366Z,87.6
2016-04-23T01:02:08.368Z,87.8
2016-04-23T01:02:18.399Z,87.8
2016-04-23T01:02:28.368Z,88.1
2016-04-23T01:02:38.352Z,87.9
2016-04-23T01:02:48.336Z,87.9
2016-04-23T01:02:58.336Z,87.9
2016-04-23T01:03:08.338Z,87.8
2016-04-23T01:03:18.338Z,87.8
2016-04-23T01:03:28.338Z,87.9
2016-04-23T01:03:38.323Z,87.7
2016-04-23T01:03:48.323Z,87.9
2016-04-23T01:03:58.323Z,88
2016-04-23T01:04:08.310Z,87.7
2016-04-23T01:04:18.310Z,87.4
2016-04-23T01:04:28.294Z,87.6
2016-04-23T01:04:38.294Z,87
2016-04-23T01:04:48.294Z,87.1
2016-04-23T01:04:58.279Z,87.4
2016-04-23T01:05:08.283Z,87.4
2016-04-23T01:05:18.283Z,87.3
2016-04-23T01:05:28.267Z,87.8
2016-04-23T01:05:38.267Z,87.3
2016-04-23T01:05:48.267Z,87.4
2016-04-23T01:05:58.252Z,87.5
2016-04-23T01:06:08.254Z,87.4
2016-04-23T01:06:18.254Z,87.6
2016-04-23T01:06:28.238Z,87.4
2016-04-23T01:06:38.238Z,87.4
2016-04-23T01:06:48.238Z,87.4
2016-04-23T01:06:58.238Z,87.4
2016-04-23T01:07:08.224Z,87.7
2016-04-23T01:07:18.209Z,87.5
2016-04-23T01:07:28.209Z,87.6
2016-04-23T01:07:38.209Z,87.7
2016-04-23T01:07:48.193Z,87.4
2016-04-23T01:07:58.193Z,87.5
2016-04-23T01:08:08.213Z,87.7
2016-04-23T01:08:18.197Z,88.1
2016-04-23T01:08:28.197Z,88.3
2016-04-23T01:08:38.166Z,88.4
2016-04-23T01:08:48.166Z,88.2
2016-04-23T01:08:58.166Z,87.6
2016-04-23T01:09:08.152Z,88.2
2016-04-23T01:09:18.168Z,88.7
2016-04-23T01:09:28.168Z,88.7
2016-04-23T01:09:38.152Z,89
2016-04-23T01:09:48.152Z,88.9
2016-04-23T01:09:58.137Z,88.7
2016-04-23T01:10:08.140Z,88.6
2016-04-23T01:10:18.140Z,88.6
2016-04-23T01:10:28.108Z,87.9
2016-04-23T01:10:38.124Z,87
2016-04-23T01:10:48.108Z,87.2
2016-04-23T01:10:58.124Z,87.7
2016-04-23T01:11:08.095Z,87.4
2016-04-23T01:11:18.110Z,87.5
2016-04-23T01:11:28.095Z,87.5
2016-04-23T01:11:38.095Z,87.6
2016-04-23T01:11:48.095Z,87.5
2016-04-23T01:11:58.079Z,87.2
2016-04-23T01:12:08.067Z,87.3
2016-04-23T01:12:18.067Z,88
2016-04-23T01:12:28.067Z,87.8
2016-04-23T01:12:38.067Z,87.7
2016-04-23T01:12:48.052Z,88.3
2016-04-23T01:12:58.052Z,88.6
2016-04-23T01:13:08.054Z,88.5
2016-04-23T01:13:18.038Z,88.9
2016-04-23T01:13:28.038Z,88.9
2016-04-23T01:13:38.023Z,88.9
2016-04-23T01:13:48.023Z,89.5
2016-04-23T01:13:58.023Z,89
2016-04-23T01:14:08.025Z,89
2016-04-23T01:14:18.009Z,88.6
2016-04-23T01:14:28.009Z,88.2
2016-04-23T01:14:37.993Z,88.3
2016-04-23T01:14:47.993Z,87.9
2016-04-23T01:14:57.993Z,88.1
2016-04-23T01:15:07.981Z,88.1
2016-04-23T01:15:17.981Z,88.2
2016-04-23T01:15:27.965Z,87.2
2016-04-23T01:15:37.965Z,87.5
2016-04-23T01:15:47.965Z,87.7
2016-04-23T01:15:57.965Z,87.3
2016-04-23T01:16:07.951Z,87.2
2016-04-23T01:16:17.951Z,87.6
2016-04-23T01:16:27.936Z,87.3
2016-04-23T01:16:37.936Z,88.2
2016-04-23T01:16:47.936Z,87.8
2016-04-23T01:16:57.920Z,88.3
2016-04-23T01:17:07.924Z,88.5
2016-04-23T01:17:17.924Z,88.7
2016-04-23T01:17:27.924Z,88.6
2016-04-23T01:17:37.909Z,88.7
2016-04-23T01:17:47.955Z,88.6
2016-04-23T01:17:57.893Z,88.4
2016-04-23T01:18:07.911Z,88.1
2016-04-23T01:18:17.895Z,88.1
2016-04-23T01:18:27.879Z,87.9
2016-04-23T01:18:37.707Z,87.8
2016-04-23T01:18:47.864Z,88.1
2016-04-23T01:18:57.879Z,88.3
2016-04-23T01:19:07.867Z,88.1
2016-04-23T01:19:17.867Z,88.4
2016-04-23T01:19:27.851Z,88.3
2016-04-23T01:19:37.867Z,88.4
2016-04-23T01:19:47.851Z,88.6
2016-04-23T01:19:57.835Z,88.7
2016-04-23T01:20:07.838Z,88.7
2016-04-23T01:20:17.823Z,88.8
2016-04-23T01:20:27.838Z,89
2016-04-23T01:20:37.838Z,88.9
2016-04-23T01:20:47.807Z,89
2016-04-23T01:20:57.823Z,89
2016-04-23T01:21:07.810Z,88.9
2016-04-23T01:21:17.795Z,88.8
2016-04-23T01:21:27.795Z,88.8
2016-04-23T01:21:37.795Z,88.9
2016-04-23T01:21:47.779Z,89.1
2016-04-23T01:21:57.779Z,89.1
2016-04-23T01:22:07.765Z,88.9
2016-04-23T01:22:17.765Z,88.9
2016-04-23T01:22:27.765Z,88.8
2016-04-23T01:22:37.781Z,88.7
2016-04-23T01:22:47.781Z,88.6
2016-04-23T01:22:57.781Z,88.1
2016-04-23T01:23:07.767Z,88.8
2016-04-23T01:23:17.752Z,88.9
2016-04-23T01:23:27.752Z,88.7
2016-04-23T01:23:37.736Z,88.9
2016-04-23T01:23:47.736Z,88.9
2016-04-23T01:23:57.720Z,88.8
2016-04-23T01:24:07.724Z,88.6
2016-04-23T01:24:17.724Z,88.5
2016-04-23T01:24:27.709Z,88.4
2016-04-23T01:24:37.693Z,88.9
2016-04-23T01:24:47.693Z,89
2016-04-23T01:24:57.693Z,89
2016-04-23T01:25:07.680Z,89
2016-04-23T01:25:17.680Z,88.5
2016-04-23T01:25:27.680Z,88.5
2016-04-23T01:25:37.664Z,88
2016-04-23T01:25:47.664Z,88.3
2016-04-23T01:25:57.664Z,88
2016-04-23T01:26:07.667Z,88
2016-04-23T01:26:17.651Z,87.4
2016-04-23T01:26:27.651Z,87.3
2016-04-23T01:26:37.651Z,87.1
2016-04-23T01:26:47.636Z,87.3
2016-04-23T01:26:57.620Z,87.4
2016-04-23T01:27:07.622Z,87.2
2016-04-23T01:27:17.622Z,87.4
2016-04-23T01:27:27.622Z,87.3
2016-04-23T01:27:37.606Z,87.6
2016-04-23T01:27:47.606Z,87.5
2016-04-23T01:27:57.591Z,87.2
2016-04-23T01:28:07.594Z,87.3
2016-04-23T01:28:17.594Z,88.3
2016-04-23T01:28:27.578Z,88.6
2016-04-23T01:28:37.594Z,88.7
2016-04-23T01:28:47.563Z,88.6
2016-04-23T01:28:57.578Z,88.6
2016-04-23T01:29:07.566Z,88.2
2016-04-23T01:29:17.566Z,87.8
2016-04-23T01:29:27.566Z,87.8
2016-04-23T01:29:37.550Z,88
2016-04-23T01:29:47.550Z,87.9
2016-04-23T01:29:57.534Z,87.9
2016-04-23T01:30:07.536Z,87.8
2016-04-23T01:30:17.521Z,88
2016-04-23T01:30:27.521Z,88.3
2016-04-23T01:30:37.536Z,88.8
2016-04-23T01:30:47.521Z,88.8
2016-04-23T01:30:57.521Z,88.9
2016-04-23T01:31:07.524Z,88.8
2016-04-23T01:31:17.508Z,88.9
2016-04-23T01:31:27.492Z,88.5
2016-04-23T01:31:37.477Z,88.6
2016-04-23T01:31:47.477Z,89
2016-04-23T01:31:57.477Z,88.5
2016-04-23T01:32:07.480Z,88
2016-04-23T01:32:17.480Z,87.8
2016-04-23T01:32:27.464Z,88.1
2016-04-23T01:32:37.464Z,88.7
2016-04-23T01:32:47.464Z,88.6
2016-04-23T01:32:57.464Z,88.1
2016-04-23T01:33:07.452Z,88.2
2016-04-23T01:33:17.452Z,88
2016-04-23T01:33:27.436Z,88.2
2016-04-23T01:33:37.436Z,87.9
2016-04-23T01:33:47.420Z,87.4
2016-04-23T01:33:57.452Z,87.4
2016-04-23T01:34:07.438Z,87.2
2016-04-23T01:34:17.422Z,87.5
2016-04-23T01:34:27.407Z,87.6
2016-04-23T01:34:37.422Z,87.6
2016-04-23T01:34:47.422Z,87.4
2016-04-23T01:34:57.422Z,87.3
2016-04-23T01:35:07.410Z,87.3
2016-04-23T01:35:17.410Z,87.2
2016-04-23T01:35:27.394Z,87.5
2016-04-23T01:35:37.394Z,87.5
2016-04-23T01:35:47.378Z,87.5
2016-04-23T01:35:57.378Z,87.5
2016-04-23T01:36:07.366Z,87.6
2016-04-23T01:36:17.366Z,87.8
2016-04-23T01:36:27.366Z,87.5
2016-04-23T01:36:37.366Z,87.6
2016-04-23T01:36:47.381Z,88
2016-04-23T01:36:57.350Z,87.8
2016-04-23T01:37:07.352Z,87.8
2016-04-23T01:37:17.337Z,88
2016-04-23T01:37:27.321Z,88
2016-04-23T01:37:37.337Z,88.3
2016-04-23T01:37:47.321Z,87.9
2016-04-23T01:37:57.337Z,87.7
2016-04-23T01:38:07.324Z,87.8
2016-04-23T01:38:17.308Z,87.9
2016-04-23T01:38:27.308Z,88.1
2016-04-23T01:38:37.293Z,87.1
2016-04-23T01:38:47.293Z,88
2016-04-23T01:38:57.293Z,87.9
2016-04-23T01:39:07.280Z,87.8
2016-04-23T01:39:17.296Z,88.2
2016-04-23T01:39:27.280Z,88
2016-04-23T01:39:37.280Z,88.2
2016-04-23T01:39:47.264Z,88
2016-04-23T01:39:57.264Z,88
2016-04-23T01:40:07.266Z,87.3
2016-04-23T01:40:17.251Z,88
2016-04-23T01:40:27.251Z,88
2016-04-23T01:40:37.251Z,87.4
2016-04-23T01:40:47.235Z,87.3
2016-04-23T01:40:57.220Z,87.8
2016-04-23T01:41:07.223Z,87.7
2016-04-23T01:41:17.238Z,88.3
2016-04-23T01:41:27.238Z,88.7
2016-04-23T01:41:37.207Z,88.5
2016-04-23T01:41:47.223Z,88.8
2016-04-23T01:41:57.191Z,88.7
2016-04-23T01:42:07.194Z,88.9
2016-04-23T01:42:17.179Z,89
2016-04-23T01:42:27.179Z,88.5
2016-04-23T01:42:37.210Z,88.8
2016-04-23T01:42:47.179Z,88.5
2016-04-23T01:42:57.179Z,88.2
2016-04-23T01:43:07.165Z,87.8
2016-04-23T01:43:17.165Z,88
2016-04-23T01:43:27.149Z,87.4
2016-04-23T01:43:37.149Z,88
2016-04-23T01:43:47.149Z,88
2016-04-23T01:43:57.149Z,87.9
2016-04-23T01:44:07.137Z,87.7
2016-04-23T01:44:17.121Z,87.9
2016-04-23T01:44:27.121Z,88.2
2016-04-23T01:44:37.121Z,88.9
2016-04-23T01:44:47.121Z,88.8
2016-04-23T01:44:57.121Z,88.6
2016-04-23T01:45:07.124Z,88.7
2016-04-23T01:45:17.093Z,88.7
2016-04-23T01:45:27.093Z,88.6
2016-04-23T01:45:37.077Z,88.6
2016-04-23T01:45:47.077Z,88.2
2016-04-23T01:45:57.077Z,88.2
2016-04-23T01:46:07.080Z,88.5
2016-04-23T01:46:17.080Z,88.5
2016-04-23T01:46:27.080Z,88.6
2016-04-23T01:46:37.065Z,88.8
2016-04-23T01:46:47.049Z,88.8
2016-04-23T01:46:57.049Z,88.5
2016-04-23T01:47:07.051Z,88.9
2016-04-23T01:47:17.035Z,89.1
2016-04-23T01:47:27.035Z,89.3
2016-04-23T01:47:37.051Z,89.6
2016-04-23T01:47:47.020Z,89.6
2016-04-23T01:47:57.051Z,89.1
2016-04-23T01:48:07.023Z,89.2
2016-04-23T01:48:17.007Z,89.2
2016-04-23T01:48:27.007Z,88.7
2016-04-23T01:48:37.007Z,88.8
2016-04-23T01:48:46.992Z,88.6
2016-04-23T01:48:56.992Z,88.7
2016-04-23T01:49:06.979Z,88.8
2016-04-23T01:49:16.995Z,89
2016-04-23T01:49:26.979Z,88.7
2016-04-23T01:49:36.979Z,88.9
2016-04-23T01:49:46.979Z,89.3
2016-04-23T01:49:56.963Z,89.1
2016-04-23T01:50:06.965Z,89.4
2016-04-23T01:50:16.965Z,88.9
2016-04-23T01:50:26.950Z,89.2
2016-04-23T01:50:36.934Z,89.2
2016-04-23T01:50:46.934Z,89
2016-04-23T01:50:56.918Z,89
2016-04-23T01:51:06.921Z,88.4
2016-04-23T01:51:16.921Z,88.6
2016-04-23T01:51:26.921Z,89
2016-04-23T01:51:36.921Z,88.6
2016-04-23T01:51:46.906Z,88.7
2016-04-23T01:51:56.906Z,88.7
2016-04-23T01:52:06.892Z,88.8
2016-04-23T01:52:16.892Z,88.1
2016-04-23T01:52:26.877Z,88
2016-04-23T01:52:36.877Z,88.2
2016-04-23T01:52:46.877Z,88.4
2016-04-23T01:52:56.877Z,88.2
2016-04-23T01:53:06.865Z,88.2
2016-04-23T01:53:16.865Z,88.2
2016-04-23T01:53:26.849Z,88.2
2016-04-23T01:53:36.849Z,88.1
2016-04-23T01:53:46.849Z,88.8
2016-04-23T01:53:56.834Z,89
2016-04-23T01:54:06.836Z,89.1
2016-04-23T01:54:16.836Z,89.3
2016-04-23T01:54:26.820Z,89
2016-04-23T01:54:36.820Z,89.3
2016-04-23T01:54:46.820Z,89.2
2016-04-23T01:54:56.804Z,89.3
2016-04-23T01:55:06.822Z,88.9
2016-04-23T01:55:16.791Z,89
2016-04-23T01:55:26.791Z,89.4
2016-04-23T01:55:36.791Z,89.8
2016-04-23T01:55:46.775Z,89.6
2016-04-23T01:55:56.791Z,89.3
2016-04-23T01:56:06.779Z,89.2
2016-04-23T01:56:16.779Z,89.1
2016-04-23T01:56:26.779Z,89.4
2016-04-23T01:56:36.748Z,89
2016-04-23T01:56:46.748Z,89.3
2016-04-23T01:56:56.748Z,88.9
2016-04-23T01:57:06.734Z,88.9
2016-04-23T01:57:16.734Z,88.7
2016-04-23T01:57:26.734Z,88.8
2016-04-23T01:57:36.734Z,88.8
2016-04-23T01:57:46.719Z,88.5
2016-04-23T01:57:56.719Z,88.5
2016-04-23T01:58:06.722Z,88.7
2016-04-23T01:58:16.722Z,88.6
2016-04-23T01:58:26.722Z,88.6
2016-04-23T01:58:36.706Z,88.8
2016-04-23T01:58:46.706Z,88.5
2016-04-23T01:58:56.675Z,88.6
2016-04-23T01:59:06.677Z,88.8
2016-04-23T01:59:16.692Z,88.8
2016-04-23T01:59:26.677Z,89
2016-04-23T01:59:36.677Z,88.8
2016-04-23T01:59:46.677Z,88.7
2016-04-23T01:59:56.661Z,88.2
2016-04-23T02:00:06.650Z,88
2016-04-23T02:00:16.681Z,87.8
2016-04-23T02:00:26.650Z,88
2016-04-23T02:00:36.650Z,87.2
2016-04-23T02:00:46.634Z,88
2016-04-23T02:00:56.650Z,88
2016-04-23T02:01:06.620Z,87.9
2016-04-23T02:01:16.620Z,88.3
2016-04-23T02:01:26.620Z,88.1
2016-04-23T02:01:36.620Z,88.2
2016-04-23T02:01:46.605Z,88.4
2016-04-23T02:01:56.605Z,89
2016-04-23T02:02:06.591Z,88.9
2016-04-23T02:02:16.591Z,88.7
2016-04-23T02:02:26.591Z,88.7
2016-04-23T02:02:36.591Z,88.7
2016-04-23T02:02:46.575Z,89
2016-04-23T02:02:56.575Z,89.3
2016-04-23T02:03:06.563Z,89.3
2016-04-23T02:03:16.563Z,88.9
2016-04-23T02:03:26.547Z,88.7
2016-04-23T02:03:36.547Z,89.2
2016-04-23T02:03:46.547Z,89.2
2016-04-23T02:03:56.547Z,88.7
2016-04-23T02:04:06.549Z,88.9
2016-04-23T02:04:16.534Z,88.9
2016-04-23T02:04:26.518Z,88.7
2016-04-23T02:04:36.518Z,88.8
2016-04-23T02:04:46.518Z,88.9
2016-04-23T02:04:56.518Z,88.8
2016-04-23T02:05:06.522Z,88.8
2016-04-23T02:05:16.522Z,88.7
2016-04-23T02:05:26.522Z,89
2016-04-23T02:05:36.491Z,89.3
2016-04-23T02:05:46.491Z,89.6
2016-04-23T02:05:56.475Z,89.2
2016-04-23T02:06:06.477Z,88.9
2016-04-23T02:06:16.477Z,88.6
2016-04-23T02:06:26.461Z,88.7
2016-04-23T02:06:36.461Z,88.7
2016-04-23T02:06:46.461Z,88.9
2016-04-23T02:06:56.446Z,88.6
2016-04-23T02:07:06.449Z,88.7
2016-04-23T02:07:16.433Z,89
2016-04-23T02:07:26.433Z,89
2016-04-23T02:07:36.433Z,89
2016-04-23T02:07:46.418Z,89.2
2016-04-23T02:07:56.418Z,89.2
2016-04-23T02:08:06.405Z,88.7
2016-04-23T02:08:16.405Z,88.8
2016-04-23T02:08:26.405Z,89
2016-04-23T02:08:36.405Z,89.4
2016-04-23T02:08:46.405Z,89.4
2016-04-23T02:08:56.389Z,89.6
2016-04-23T02:09:06.392Z,89.6
2016-04-23T02:09:16.392Z,89.6
2016-04-23T02:09:26.377Z,89.6
2016-04-23T02:09:36.361Z,89.7
2016-04-23T02:09:46.361Z,89.9
2016-04-23T02:09:56.377Z,89.3
2016-04-23T02:10:06.363Z,89.3
2016-04-23T02:10:16.363Z,89.3
2016-04-23T02:10:26.347Z,89.7
2016-04-23T02:10:36.332Z,90
2016-04-23T02:10:46.332Z,90.2
2016-04-23T02:10:56.316Z,89.8
2016-04-23T02:11:06.318Z,89.3
2016-04-23T02:11:16.318Z,88.9
2016-04-23T02:11:26.318Z,89.3
2016-04-23T02:11:36.303Z,89
2016-04-23T02:11:46.303Z,89.1
2016-04-23T02:11:56.303Z,89.4
2016-04-23T02:12:06.291Z,89.6
2016-04-23T02:12:16.307Z,90.1
2016-04-23T02:12:26.291Z,90.1
2016-04-23T02:12:36.275Z,90.1
2016-04-23T02:12:46.275Z,90
2016-04-23T02:12:56.275Z,90.3
2016-04-23T02:13:06.262Z,90.2
2016-04-23T02:13:16.262Z,90.2
2016-04-23T02:13:26.262Z,89.5
2016-04-23T02:13:36.262Z,90.2
2016-04-23T02:13:46.262Z,89.5
2016-04-23T02:13:56.230Z,89.6
2016-04-23T02:14:06.233Z,89.4
2016-04-23T02:14:16.218Z,89.4